sensor_id;sensor_type;location;lat;lon;timestamp;pressure;altitude;pressure_sealevel;temperature;humidity
19210;BME280;9738;51.654;14.238;2023-04-10T00:02:09;101503.50;;;3.16;100.00
19210;BME280;9738;51.654;14.238;2023-04-10T00:04:35;101500.31;;;3.09;100.00
19210;BME280;9738;51.654;14.238;2023-04-10T00:07:01;101502.50;;;3.01;100.00
19210;BME280;9738;51.654;14.238;2023-04-10T00:09:27;101508.84;;;2.97;100.00
19210;BME280;9738;51.654;14.238;2023-04-10T00:11:54;101507.38;;;2.91;100.00
19210;BME280;9738;51.654;14.238;2023-04-10T00:14:20;101502.03;;;2.93;100.00
19210;BME280;9738;51.654;14.238;2023-04-10T00:16:48;101503.81;;;2.92;100.00
19210;BME280;9738;51.654;14.238;2023-04-10T00:19:15;101506.69;;;2.88;100.00
19210;BME280;9738;51.654;14.238;2023-04-10T00:21:41;101500.63;;;2.86;100.00
19210;BME280;9738;51.654;14.238;2023-04-10T00:24:07;101506.06;;;2.83;100.00
19210;BME280;9738;51.654;14.238;2023-04-10T00:26:34;101499.38;;;2.76;100.00
19210;BME280;9738;51.654;14.238;2023-04-10T00:29:01;101492.63;;;2.70;100.00
19210;BME280;9738;51.654;14.238;2023-04-10T00:31:28;101499.03;;;2.64;100.00
19210;BME280;9738;51.654;14.238;2023-04-10T00:33:54;101494.81;;;2.60;100.00
19210;BME280;9738;51.654;14.238;2023-04-10T00:36:20;101489.84;;;2.54;100.00
19210;BME280;9738;51.654;14.238;2023-04-10T00:38:47;101498.06;;;2.48;100.00
19210;BME280;9738;51.654;14.238;2023-04-10T00:41:14;101490.47;;;2.42;100.00
19210;BME280;9738;51.654;14.238;2023-04-10T00:43:40;101486.25;;;2.38;100.00
19210;BME280;9738;51.654;14.238;2023-04-10T00:46:06;101483.84;;;2.33;100.00
19210;BME280;9738;51.654;14.238;2023-04-10T00:48:33;101488.91;;;2.38;100.00
19210;BME280;9738;51.654;14.238;2023-04-10T00:50:59;101484.25;;;2.43;100.00
19210;BME280;9738;51.654;14.238;2023-04-10T00:53:27;101490.47;;;2.42;100.00
19210;BME280;9738;51.654;14.238;2023-04-10T00:55:53;101487.19;;;2.37;100.00
19210;BME280;9738;51.654;14.238;2023-04-10T00:58:20;101484.69;;;2.34;100.00
19210;BME280;9738;51.654;14.238;2023-04-10T01:00:47;101480.84;;;2.22;100.00
19210;BME280;9738;51.654;14.238;2023-04-10T01:03:14;101487.50;;;2.12;100.00
19210;BME280;9738;51.654;14.238;2023-04-10T01:05:46;101494.91;;;2.04;100.00
19210;BME280;9738;51.654;14.238;2023-04-10T01:11:09;101484.09;;;1.91;100.00
19210;BME280;9738;51.654;14.238;2023-04-10T01:18:49;101488.97;;;1.80;100.00
19210;BME280;9738;51.654;14.238;2023-04-10T01:21:18;101492.59;;;1.77;100.00
19210;BME280;9738;51.654;14.238;2023-04-10T01:29:46;101494.75;;;1.88;100.00
19210;BME280;9738;51.654;14.238;2023-04-10T01:32:21;101493.81;;;1.89;100.00
19210;BME280;9738;51.654;14.238;2023-04-10T01:34:53;101501.59;;;1.92;100.00
19210;BME280;9738;51.654;14.238;2023-04-10T01:37:21;101493.72;;;1.90;100.00
19210;BME280;9738;51.654;14.238;2023-04-10T01:39:53;101491.06;;;1.92;100.00
19210;BME280;9738;51.654;14.238;2023-04-10T01:42:24;101489.34;;;1.91;100.00
19210;BME280;9738;51.654;14.238;2023-04-10T01:44:53;101492.09;;;1.88;100.00
19210;BME280;9738;51.654;14.238;2023-04-10T01:47:21;101487.88;;;1.84;100.00
19210;BME280;9738;51.654;14.238;2023-04-10T01:49:47;101487.13;;;1.82;100.00
19210;BME280;9738;51.654;14.238;2023-04-10T01:52:16;101481.16;;;1.78;100.00
19210;BME280;9738;51.654;14.238;2023-04-10T01:54:42;101486.34;;;1.80;100.00
19210;BME280;9738;51.654;14.238;2023-04-10T01:57:10;101484.56;;;1.80;100.00
19210;BME280;9738;51.654;14.238;2023-04-10T01:59:39;101484.75;;;1.76;100.00
19210;BME280;9738;51.654;14.238;2023-04-10T02:02:05;101478.84;;;1.71;100.00
19210;BME280;9738;51.654;14.238;2023-04-10T02:04:36;101475.59;;;1.66;100.00
19210;BME280;9738;51.654;14.238;2023-04-10T02:07:05;101473.22;;;1.59;100.00
19210;BME280;9738;51.654;14.238;2023-04-10T02:09:41;101480.31;;;1.57;100.00
19210;BME280;9738;51.654;14.238;2023-04-10T02:12:25;101481.25;;;1.56;100.00
19210;BME280;9738;51.654;14.238;2023-04-10T02:14:54;101471.63;;;1.55;100.00
19210;BME280;9738;51.654;14.238;2023-04-10T02:17:28;101471.63;;;1.55;100.00
19210;BME280;9738;51.654;14.238;2023-04-10T02:19:57;101469.13;;;1.52;100.00
19210;BME280;9738;51.654;14.238;2023-04-10T02:22:24;101472.84;;;1.48;100.00
19210;BME280;9738;51.654;14.238;2023-04-10T02:24:52;101466.75;;;1.46;100.00
19210;BME280;9738;51.654;14.238;2023-04-10T02:27:37;101463.44;;;1.43;100.00
19210;BME280;9738;51.654;14.238;2023-04-10T02:30:04;101474.03;;;1.41;100.00
19210;BME280;9738;51.654;14.238;2023-04-10T02:32:30;101467.06;;;1.40;100.00
19210;BME280;9738;51.654;14.238;2023-04-10T02:34:58;101459.16;;;1.40;100.00
19210;BME280;9738;51.654;14.238;2023-04-10T02:37:24;101464.44;;;1.40;100.00
19210;BME280;9738;51.654;14.238;2023-04-10T02:39:51;101463.56;;;1.40;100.00
19210;BME280;9738;51.654;14.238;2023-04-10T02:42:17;101464.44;;;1.40;100.00
19210;BME280;9738;51.654;14.238;2023-04-10T02:44:43;101471.25;;;1.44;100.00
19210;BME280;9738;51.654;14.238;2023-04-10T02:47:09;101466.72;;;1.48;100.00
19210;BME280;9738;51.654;14.238;2023-04-10T02:49:35;101461.38;;;1.49;100.00
19210;BME280;9738;51.654;14.238;2023-04-10T02:52:01;101462.81;;;1.56;100.00
19210;BME280;9738;51.654;14.238;2023-04-10T02:54:27;101459.91;;;1.62;100.00
19210;BME280;9738;51.654;14.238;2023-04-10T02:56:53;101456.22;;;1.67;100.00
19210;BME280;9738;51.654;14.238;2023-04-10T02:59:19;101454.63;;;1.62;100.00
19210;BME280;9738;51.654;14.238;2023-04-10T03:01:45;101460.06;;;1.59;100.00
19210;BME280;9738;51.654;14.238;2023-04-10T03:04:12;101460.19;;;1.56;100.00
19210;BME280;9738;51.654;14.238;2023-04-10T03:06:38;101462.16;;;1.51;100.00
19210;BME280;9738;51.654;14.238;2023-04-10T03:09:04;101467.00;;;1.42;100.00
19210;BME280;9738;51.654;14.238;2023-04-10T03:11:30;101460.34;;;1.33;100.00
19210;BME280;9738;51.654;14.238;2023-04-10T03:13:56;101456.16;;;1.29;100.00
19210;BME280;9738;51.654;14.238;2023-04-10T03:16:25;101450.06;;;1.27;100.00
19210;BME280;9738;51.654;14.238;2023-04-10T03:18:52;101458.78;;;1.29;100.00
19210;BME280;9738;51.654;14.238;2023-04-10T03:21:18;101447.44;;;1.27;100.00
19210;BME280;9738;51.654;14.238;2023-04-10T03:23:44;101454.44;;;1.28;100.00
19210;BME280;9738;51.654;14.238;2023-04-10T03:26:10;101452.59;;;1.30;100.00
19210;BME280;9738;51.654;14.238;2023-04-10T03:28:37;101454.09;;;1.35;100.00
19210;BME280;9738;51.654;14.238;2023-04-10T03:31:04;101442.38;;;1.43;100.00
19210;BME280;9738;51.654;14.238;2023-04-10T03:33:30;101444.00;;;1.45;100.00
19210;BME280;9738;51.654;14.238;2023-04-10T03:35:57;101445.72;;;1.46;100.00
19210;BME280;9738;51.654;14.238;2023-04-10T03:38:23;101444.81;;;1.47;100.00
19210;BME280;9738;51.654;14.238;2023-04-10T03:40:48;101450.19;;;1.44;100.00
19210;BME280;9738;51.654;14.238;2023-04-10T03:43:15;101454.03;;;1.37;100.00
19210;BME280;9738;51.654;14.238;2023-04-10T03:45:40;101462.38;;;1.26;100.00
19210;BME280;9738;51.654;14.238;2023-04-10T03:48:07;101466.19;;;1.19;100.00
19210;BME280;9738;51.654;14.238;2023-04-10T03:50:33;101466.44;;;1.15;100.00
19210;BME280;9738;51.654;14.238;2023-04-10T03:52:59;101457.78;;;1.11;100.00
19210;BME280;9738;51.654;14.238;2023-04-10T03:55:26;101464.06;;;1.08;100.00
19210;BME280;9738;51.654;14.238;2023-04-10T03:57:52;101463.31;;;1.05;100.00
19210;BME280;9738;51.654;14.238;2023-04-10T04:00:19;101465.16;;;1.03;100.00
19210;BME280;9738;51.654;14.238;2023-04-10T04:02:45;101460.03;;;1.00;100.00
19210;BME280;9738;51.654;14.238;2023-04-10T04:05:12;101474.03;;;1.00;100.00
19210;BME280;9738;51.654;14.238;2023-04-10T04:07:37;101471.47;;;0.99;100.00
19210;BME280;9738;51.654;14.238;2023-04-10T04:10:03;101467.97;;;0.98;100.00
19210;BME280;9738;51.654;14.238;2023-04-10T04:12:30;101470.72;;;0.95;100.00
19210;BME280;9738;51.654;14.238;2023-04-10T04:14:56;101477.72;;;0.96;100.00
19210;BME280;9738;51.654;14.238;2023-04-10T04:17:21;101481.13;;;0.98;100.00
19210;BME280;9738;51.654;14.238;2023-04-10T04:19:48;101491.47;;;1.03;100.00
19210;BME280;9738;51.654;14.238;2023-04-10T04:22:14;101490.41;;;1.07;100.00
19210;BME280;9738;51.654;14.238;2023-04-10T04:24:40;101486.91;;;1.06;100.00
19210;BME280;9738;51.654;14.238;2023-04-10T04:27:06;101492.31;;;1.03;100.00
19210;BME280;9738;51.654;14.238;2023-04-10T04:29:32;101488.00;;;1.02;100.00
19210;BME280;9738;51.654;14.238;2023-04-10T04:31:57;101484.75;;;0.96;100.00
19210;BME280;9738;51.654;14.238;2023-04-10T04:34:24;101492.84;;;0.91;100.00
19210;BME280;9738;51.654;14.238;2023-04-10T04:36:50;101492.09;;;0.88;100.00
19210;BME280;9738;51.654;14.238;2023-04-10T04:39:15;101495.56;;;0.88;100.00
19210;BME280;9738;51.654;14.238;2023-04-10T04:41:42;101497.09;;;0.94;100.00
19210;BME280;9738;51.654;14.238;2023-04-10T04:44:08;101497.59;;;1.03;100.00
19210;BME280;9738;51.654;14.238;2023-04-10T04:46:34;101494.69;;;1.10;100.00
19210;BME280;9738;51.654;14.238;2023-04-10T04:49:00;101490.88;;;1.17;100.00
19210;BME280;9738;51.654;14.238;2023-04-10T04:51:26;101488.78;;;1.25;100.00
19210;BME280;9738;51.654;14.238;2023-04-10T04:53:51;101498.97;;;1.32;100.00
19210;BME280;9738;51.654;14.238;2023-04-10T04:56:18;101500.63;;;1.35;100.00
19210;BME280;9738;51.654;14.238;2023-04-10T04:58:43;101494.44;;;1.36;100.00
19210;BME280;9738;51.654;14.238;2023-04-10T05:01:09;101495.41;;;1.33;100.00
19210;BME280;9738;51.654;14.238;2023-04-10T05:03:36;101499.81;;;1.33;100.00
19210;BME280;9738;51.654;14.238;2023-04-10T05:06:01;101502.19;;;1.39;100.00
19210;BME280;9738;51.654;14.238;2023-04-10T05:08:27;101501.06;;;1.45;100.00
19210;BME280;9738;51.654;14.238;2023-04-10T05:10:53;101502.56;;;1.50;100.00
19210;BME280;9738;51.654;14.238;2023-04-10T05:13:19;101505.00;;;1.55;100.00
19210;BME280;9738;51.654;14.238;2023-04-10T05:15:45;101500.41;;;1.60;100.00
19210;BME280;9738;51.654;14.238;2023-04-10T05:18:12;101501.97;;;1.64;100.00
19210;BME280;9738;51.654;14.238;2023-04-10T05:20:38;101505.41;;;1.66;100.00
19210;BME280;9738;51.654;14.238;2023-04-10T05:23:04;101504.56;;;1.66;100.00
19210;BME280;9738;51.654;14.238;2023-04-10T05:25:31;101498.34;;;1.67;100.00
19210;BME280;9738;51.654;14.238;2023-04-10T05:27:56;101501.59;;;1.72;100.00
19210;BME280;9738;51.654;14.238;2023-04-10T05:30:22;101506.59;;;1.78;100.00
19210;BME280;9738;51.654;14.238;2023-04-10T05:32:49;101502.53;;;1.91;100.00
19210;BME280;9738;51.654;14.238;2023-04-10T05:35:15;101498.69;;;1.98;100.00
19210;BME280;9738;51.654;14.238;2023-04-10T05:37:41;101515.75;;;2.08;100.00
19210;BME280;9738;51.654;14.238;2023-04-10T05:40:07;101508.22;;;2.20;100.00
19210;BME280;9738;51.654;14.238;2023-04-10T05:42:33;101507.47;;;2.35;100.00
19210;BME280;9738;51.654;14.238;2023-04-10T05:44:59;101503.34;;;2.48;100.00
19210;BME280;9738;51.654;14.238;2023-04-10T05:47:25;101507.88;;;2.63;100.00
19210;BME280;9738;51.654;14.238;2023-04-10T05:49:51;101500.16;;;2.78;100.00
19210;BME280;9738;51.654;14.238;2023-04-10T05:52:17;101500.41;;;2.90;100.00
19210;BME280;9738;51.654;14.238;2023-04-10T05:54:43;101500.50;;;3.06;100.00
19210;BME280;9738;51.654;14.238;2023-04-10T05:57:08;101503.28;;;3.20;100.00
19210;BME280;9738;51.654;14.238;2023-04-10T05:59:34;101507.94;;;3.33;100.00
19210;BME280;9738;51.654;14.238;2023-04-10T06:02:01;101503.72;;;3.46;100.00
19210;BME280;9738;51.654;14.238;2023-04-10T06:04:27;101499.44;;;3.61;100.00
19210;BME280;9738;51.654;14.238;2023-04-10T06:06:52;101497.69;;;3.77;100.00
19210;BME280;9738;51.654;14.238;2023-04-10T06:09:19;101494.13;;;3.94;100.00
19210;BME280;9738;51.654;14.238;2023-04-10T06:11:44;101505.41;;;4.13;100.00
19210;BME280;9738;51.654;14.238;2023-04-10T06:14:11;101503.41;;;4.34;100.00
19210;BME280;9738;51.654;14.238;2023-04-10T06:16:38;101498.88;;;4.52;100.00
19210;BME280;9738;51.654;14.238;2023-04-10T06:19:03;101504.53;;;4.76;100.00
19210;BME280;9738;51.654;14.238;2023-04-10T06:21:29;101504.16;;;4.98;100.00
19210;BME280;9738;51.654;14.238;2023-04-10T06:23:56;101495.31;;;5.13;100.00
19210;BME280;9738;51.654;14.238;2023-04-10T06:26:22;101498.00;;;5.27;100.00
19210;BME280;9738;51.654;14.238;2023-04-10T06:28:48;101500.50;;;5.14;100.00
19210;BME280;9738;51.654;14.238;2023-04-10T06:31:17;101504.38;;;5.09;100.00
19210;BME280;9738;51.654;14.238;2023-04-10T06:33:44;101501.38;;;5.15;100.00
19210;BME280;9738;51.654;14.238;2023-04-10T06:36:09;101505.44;;;5.21;100.00
19210;BME280;9738;51.654;14.238;2023-04-10T06:38:36;101502.16;;;5.31;100.00
19210;BME280;9738;51.654;14.238;2023-04-10T06:41:04;101497.66;;;5.48;100.00
19210;BME280;9738;51.654;14.238;2023-04-10T06:43:32;101499.66;;;5.58;100.00
19210;BME280;9738;51.654;14.238;2023-04-10T06:45:59;101496.06;;;5.59;100.00
19210;BME280;9738;51.654;14.238;2023-04-10T06:48:25;101502.34;;;5.73;100.00
19210;BME280;9738;51.654;14.238;2023-04-10T06:50:50;101497.97;;;5.86;100.00
19210;BME280;9738;51.654;14.238;2023-04-10T06:53:17;101491.44;;;5.91;100.00
19210;BME280;9738;51.654;14.238;2023-04-10T06:55:42;101497.25;;;5.98;100.00
19210;BME280;9738;51.654;14.238;2023-04-10T06:58:08;101493.06;;;6.08;100.00
19210;BME280;9738;51.654;14.238;2023-04-10T07:00:34;101499.22;;;6.09;100.00
19210;BME280;9738;51.654;14.238;2023-04-10T07:03:00;101497.03;;;6.15;100.00
19210;BME280;9738;51.654;14.238;2023-04-10T07:05:26;101492.16;;;6.36;100.00
19210;BME280;9738;51.654;14.238;2023-04-10T07:07:52;101496.41;;;6.39;100.00
19210;BME280;9738;51.654;14.238;2023-04-10T07:10:18;101499.75;;;6.28;100.00
19210;BME280;9738;51.654;14.238;2023-04-10T07:12:44;101503.53;;;6.38;100.00
19210;BME280;9738;51.654;14.238;2023-04-10T07:15:10;101496.19;;;6.42;100.00
19210;BME280;9738;51.654;14.238;2023-04-10T07:17:37;101498.91;;;6.55;100.00
19210;BME280;9738;51.654;14.238;2023-04-10T07:20:03;101506.47;;;6.61;100.00
19210;BME280;9738;51.654;14.238;2023-04-10T07:22:30;101500.59;;;6.70;100.00
19210;BME280;9738;51.654;14.238;2023-04-10T07:24:57;101497.16;;;6.68;100.00
19210;BME280;9738;51.654;14.238;2023-04-10T07:27:24;101498.00;;;6.56;100.00
19210;BME280;9738;51.654;14.238;2023-04-10T07:29:53;101502.34;;;6.42;100.00
19210;BME280;9738;51.654;14.238;2023-04-10T07:32:19;101495.91;;;6.46;100.00
19210;BME280;9738;51.654;14.238;2023-04-10T07:34:46;101500.66;;;6.41;100.00
19210;BME280;9738;51.654;14.238;2023-04-10T07:37:13;101494.50;;;6.68;100.00
19210;BME280;9738;51.654;14.238;2023-04-10T07:39:39;101502.47;;;6.68;100.00
19210;BME280;9738;51.654;14.238;2023-04-10T07:42:05;101499.97;;;6.79;100.00
19210;BME280;9738;51.654;14.238;2023-04-10T07:44:32;101495.56;;;6.92;100.00
19210;BME280;9738;51.654;14.238;2023-04-10T07:46:57;101488.56;;;7.04;100.00
19210;BME280;9738;51.654;14.238;2023-04-10T07:49:23;101489.34;;;7.19;100.00
19210;BME280;9738;51.654;14.238;2023-04-10T07:51:50;101495.19;;;7.24;100.00
19210;BME280;9738;51.654;14.238;2023-04-10T07:54:15;101492.13;;;7.30;100.00
19210;BME280;9738;51.654;14.238;2023-04-10T07:56:41;101486.69;;;7.31;100.00
19210;BME280;9738;51.654;14.238;2023-04-10T07:59:07;101485.78;;;7.45;100.00
19210;BME280;9738;51.654;14.238;2023-04-10T08:01:33;101485.69;;;7.59;100.00
19210;BME280;9738;51.654;14.238;2023-04-10T08:03:59;101481.41;;;7.70;100.00
19210;BME280;9738;51.654;14.238;2023-04-10T08:06:25;101480.22;;;7.86;100.00
19210;BME280;9738;51.654;14.238;2023-04-10T08:08:52;101476.81;;;7.97;100.00
19210;BME280;9738;51.654;14.238;2023-04-10T08:13:51;101481.78;;;8.15;100.00
19210;BME280;9738;51.654;14.238;2023-04-10T08:16:21;101478.44;;;8.24;100.00
19210;BME280;9738;51.654;14.238;2023-04-10T08:18:47;101467.78;;;8.36;100.00
19210;BME280;9738;51.654;14.238;2023-04-10T08:21:13;101457.09;;;8.49;100.00
19210;BME280;9738;51.654;14.238;2023-04-10T08:23:39;101464.25;;;8.49;100.00
19210;BME280;9738;51.654;14.238;2023-04-10T08:26:05;101466.13;;;8.59;100.00
19210;BME280;9738;51.654;14.238;2023-04-10T08:28:32;101463.00;;;8.65;100.00
19210;BME280;9738;51.654;14.238;2023-04-10T08:30:57;101467.19;;;8.81;100.00
19210;BME280;9738;51.654;14.238;2023-04-10T08:33:23;101470.63;;;8.94;100.00
19210;BME280;9738;51.654;14.238;2023-04-10T08:35:49;101471.34;;;8.96;100.00
19210;BME280;9738;51.654;14.238;2023-04-10T08:38:15;101474.91;;;9.08;100.00
19210;BME280;9738;51.654;14.238;2023-04-10T08:40:41;101472.28;;;9.19;100.00
19210;BME280;9738;51.654;14.238;2023-04-10T08:43:09;101466.13;;;8.94;100.00
19210;BME280;9738;51.654;14.238;2023-04-10T08:45:35;101461.66;;;8.71;100.00
19210;BME280;9738;51.654;14.238;2023-04-10T08:48:02;101459.88;;;8.72;100.00
19210;BME280;9738;51.654;14.238;2023-04-10T08:50:32;101464.56;;;8.92;100.00
19210;BME280;9738;51.654;14.238;2023-04-10T08:53:07;101457.25;;;9.18;100.00
19210;BME280;9738;51.654;14.238;2023-04-10T08:55:36;101458.84;;;9.32;100.00
19210;BME280;9738;51.654;14.238;2023-04-10T08:58:03;101455.09;;;9.34;100.00
19210;BME280;9738;51.654;14.238;2023-04-10T09:00:31;101451.38;;;9.59;100.00
19210;BME280;9738;51.654;14.238;2023-04-10T09:03:00;101449.56;;;9.93;100.00
19210;BME280;9738;51.654;14.238;2023-04-10T09:05:29;101449.88;;;10.22;100.00
19210;BME280;9738;51.654;14.238;2023-04-10T09:07:55;101447.00;;;10.69;100.00
19210;BME280;9738;51.654;14.238;2023-04-10T09:10:22;101449.00;;;11.29;100.00
19210;BME280;9738;51.654;14.238;2023-04-10T09:12:48;101441.47;;;11.75;100.00
19210;BME280;9738;51.654;14.238;2023-04-10T09:15:14;101433.38;;;12.26;100.00
19210;BME280;9738;51.654;14.238;2023-04-10T09:18:00;101433.13;;;12.78;100.00
19210;BME280;9738;51.654;14.238;2023-04-10T09:20:28;101428.19;;;13.12;100.00
19210;BME280;9738;51.654;14.238;2023-04-10T09:22:55;101424.28;;;13.53;100.00
19210;BME280;9738;51.654;14.238;2023-04-10T09:28:00;101418.91;;;13.90;100.00
19210;BME280;9738;51.654;14.238;2023-04-10T09:30:52;101417.91;;;14.19;100.00
19210;BME280;9738;51.654;14.238;2023-04-10T09:33:23;101421.09;;;14.32;100.00
19210;BME280;9738;51.654;14.238;2023-04-10T09:35:49;101418.56;;;14.48;100.00
19210;BME280;9738;51.654;14.238;2023-04-10T09:38:16;101413.50;;;14.18;100.00
19210;BME280;9738;51.654;14.238;2023-04-10T09:40:44;101417.97;;;14.54;100.00
19210;BME280;9738;51.654;14.238;2023-04-10T09:43:24;101405.19;;;14.92;100.00
19210;BME280;9738;51.654;14.238;2023-04-10T09:45:55;101399.41;;;15.31;100.00
19210;BME280;9738;51.654;14.238;2023-04-10T09:48:23;101400.97;;;15.33;100.00
19210;BME280;9738;51.654;14.238;2023-04-10T09:50:49;101392.00;;;15.33;81.94
19210;BME280;9738;51.654;14.238;2023-04-10T09:53:20;101394.03;;;15.05;76.51
19210;BME280;9738;51.654;14.238;2023-04-10T09:55:47;101386.22;;;15.20;78.52
19210;BME280;9738;51.654;14.238;2023-04-10T09:58:14;101387.53;;;15.41;76.86
19210;BME280;9738;51.654;14.238;2023-04-10T10:00:43;101385.03;;;15.74;74.04
19210;BME280;9738;51.654;14.238;2023-04-10T10:03:11;101384.91;;;15.84;72.87
19210;BME280;9738;51.654;14.238;2023-04-10T10:05:46;101379.81;;;15.73;70.35
19210;BME280;9738;51.654;14.238;2023-04-10T10:08:13;101374.75;;;15.70;72.27
19210;BME280;9738;51.654;14.238;2023-04-10T10:10:45;101362.56;;;15.91;70.98
19210;BME280;9738;51.654;14.238;2023-04-10T10:13:22;101365.25;;;15.91;70.99
19210;BME280;9738;51.654;14.238;2023-04-10T10:15:57;101352.38;;;15.77;69.43
19210;BME280;9738;51.654;14.238;2023-04-10T10:21:30;101356.84;;;15.60;67.01
19210;BME280;9738;51.654;14.238;2023-04-10T10:24:00;101349.00;;;15.75;70.34
19210;BME280;9738;51.654;14.238;2023-04-10T10:26:29;101349.66;;;16.19;67.83
19210;BME280;9738;51.654;14.238;2023-04-10T10:28:55;101353.38;;;16.59;66.06
19210;BME280;9738;51.654;14.238;2023-04-10T10:31:24;101338.25;;;16.74;63.51
19210;BME280;9738;51.654;14.238;2023-04-10T10:33:51;101332.50;;;16.61;63.41
19210;BME280;9738;51.654;14.238;2023-04-10T10:36:18;101330.31;;;16.73;64.15
19210;BME280;9738;51.654;14.238;2023-04-10T10:42:11;101326.09;;;16.79;61.26
19210;BME280;9738;51.654;14.238;2023-04-10T10:44:59;101330.47;;;16.39;57.99
19210;BME280;9738;51.654;14.238;2023-04-10T10:47:28;101320.16;;;16.34;56.36
19210;BME280;9738;51.654;14.238;2023-04-10T10:49:57;101318.16;;;16.44;54.10
19210;BME280;9738;51.654;14.238;2023-04-10T10:52:36;101308.22;;;16.45;50.84
19210;BME280;9738;51.654;14.238;2023-04-10T10:57:48;101292.72;;;16.88;53.07
19210;BME280;9738;51.654;14.238;2023-04-10T11:00:15;101278.38;;;16.79;51.40
19210;BME280;9738;51.654;14.238;2023-04-10T11:02:41;101284.63;;;16.88;51.89
19210;BME280;9738;51.654;14.238;2023-04-10T11:05:07;101280.31;;;17.10;52.01
19210;BME280;9738;51.654;14.238;2023-04-10T11:11:00;101268.28;;;17.28;50.01
19210;BME280;9738;51.654;14.238;2023-04-10T11:13:31;101271.81;;;16.82;51.05
19210;BME280;9738;51.654;14.238;2023-04-10T11:15:59;101264.88;;;16.87;52.31
19210;BME280;9738;51.654;14.238;2023-04-10T11:21:17;101256.72;;;17.12;51.52
19210;BME280;9738;51.654;14.238;2023-04-10T11:28:58;101239.63;;;17.90;52.92
19210;BME280;9738;51.654;14.238;2023-04-10T11:31:25;101243.28;;;17.97;50.50
19210;BME280;9738;51.654;14.238;2023-04-10T11:34:01;101243.75;;;18.00;47.57
19210;BME280;9738;51.654;14.238;2023-04-10T11:36:28;101241.56;;;18.04;47.14
19210;BME280;9738;51.654;14.238;2023-04-10T11:39:02;101235.03;;;18.13;48.13
19210;BME280;9738;51.654;14.238;2023-04-10T11:41:32;101226.34;;;18.03;46.61
19210;BME280;9738;51.654;14.238;2023-04-10T11:44:00;101225.56;;;17.71;53.20
19210;BME280;9738;51.654;14.238;2023-04-10T11:46:27;101209.97;;;17.19;49.91
19210;BME280;9738;51.654;14.238;2023-04-10T11:48:58;101204.13;;;16.99;50.76
19210;BME280;9738;51.654;14.238;2023-04-10T11:51:25;101201.50;;;17.53;51.88
19210;BME280;9738;51.654;14.238;2023-04-10T11:54:11;101200.06;;;17.66;50.81
19210;BME280;9738;51.654;14.238;2023-04-10T11:56:39;101196.97;;;18.00;48.90
19210;BME280;9738;51.654;14.238;2023-04-10T11:59:07;101191.13;;;18.34;49.38
19210;BME280;9738;51.654;14.238;2023-04-10T12:01:36;101186.38;;;18.13;46.29
19210;BME280;9738;51.654;14.238;2023-04-10T12:04:02;101174.53;;;17.76;48.68
19210;BME280;9738;51.654;14.238;2023-04-10T12:06:28;101164.53;;;17.54;45.47
19210;BME280;9738;51.654;14.238;2023-04-10T12:08:54;101165.03;;;17.26;51.51
19210;BME280;9738;51.654;14.238;2023-04-10T12:11:22;101161.00;;;17.22;49.53
19210;BME280;9738;51.654;14.238;2023-04-10T12:13:53;101157.84;;;17.11;47.72
19210;BME280;9738;51.654;14.238;2023-04-10T12:16:19;101161.00;;;17.22;48.13
19210;BME280;9738;51.654;14.238;2023-04-10T12:18:46;101150.03;;;17.78;45.96
19210;BME280;9738;51.654;14.238;2023-04-10T12:21:13;101149.41;;;18.14;45.00
19210;BME280;9738;51.654;14.238;2023-04-10T12:23:39;101148.97;;;18.40;46.34
19210;BME280;9738;51.654;14.238;2023-04-10T12:26:25;101140.38;;;18.36;44.52
19210;BME280;9738;51.654;14.238;2023-04-10T12:28:53;101147.34;;;18.30;44.50
19210;BME280;9738;51.654;14.238;2023-04-10T12:31:26;101146.13;;;17.49;45.17
19210;BME280;9738;51.654;14.238;2023-04-10T12:33:53;101143.16;;;17.44;46.98
19210;BME280;9738;51.654;14.238;2023-04-10T12:36:24;101141.75;;;17.48;47.17
19210;BME280;9738;51.654;14.238;2023-04-10T12:38:58;101135.03;;;17.21;48.92
19210;BME280;9738;51.654;14.238;2023-04-10T12:41:28;101132.88;;;17.40;48.17
19210;BME280;9738;51.654;14.238;2023-04-10T12:44:12;101141.75;;;17.79;45.08
19210;BME280;9738;51.654;14.238;2023-04-10T12:46:40;101130.50;;;17.91;45.51
19210;BME280;9738;51.654;14.238;2023-04-10T12:51:45;101123.31;;;17.83;46.85
19210;BME280;9738;51.654;14.238;2023-04-10T12:54:34;101112.00;;;17.79;48.26
19210;BME280;9738;51.654;14.238;2023-04-10T12:57:01;101103.56;;;17.82;47.18
19210;BME280;9738;51.654;14.238;2023-04-10T12:59:29;101104.16;;;17.47;49.55
19210;BME280;9738;51.654;14.238;2023-04-10T13:01:55;101095.44;;;16.66;45.87
19210;BME280;9738;51.654;14.238;2023-04-10T13:04:21;101100.13;;;17.20;47.61
19210;BME280;9738;51.654;14.238;2023-04-10T13:06:49;101093.75;;;17.59;47.71
19210;BME280;9738;51.654;14.238;2023-04-10T13:09:17;101090.41;;;17.56;44.95
19210;BME280;9738;51.654;14.238;2023-04-10T13:11:43;101086.22;;;17.77;44.64
19210;BME280;9738;51.654;14.238;2023-04-10T13:14:09;101075.63;;;17.90;46.82
19210;BME280;9738;51.654;14.238;2023-04-10T13:16:35;101083.63;;;17.98;44.39
19210;BME280;9738;51.654;14.238;2023-04-10T13:19:01;101078.13;;;18.06;43.35
19210;BME280;9738;51.654;14.238;2023-04-10T13:21:28;101069.00;;;17.93;46.01
19210;BME280;9738;51.654;14.238;2023-04-10T13:23:54;101061.38;;;18.11;44.24
19210;BME280;9738;51.654;14.238;2023-04-10T13:26:21;101059.13;;;18.00;44.40
19210;BME280;9738;51.654;14.238;2023-04-10T13:28:47;101058.13;;;18.01;44.45
19210;BME280;9738;51.654;14.238;2023-04-10T13:31:13;101053.63;;;17.93;43.35
19210;BME280;9738;51.654;14.238;2023-04-10T13:33:46;101052.22;;;17.97;45.11
19210;BME280;9738;51.654;14.238;2023-04-10T13:36:13;101045.50;;;17.93;43.15